Time;durP1;ratioP1;P1;durP2;ratioP2;P2;SDS_P1;SDS_P2;PMS_P1;PMS_P2;Temp;Humidity;BMP_temperature;BMP_pressure;BME280_temperature;BME280_humidity;BME280_pressure;Samples;Min_cycle;Max_cycle;Signal;HPM_P1;HPM_P2
2022/05/26 00:01:24;;;;;;;10.25;1.38;;;16.10;95.60;;;;;;4823603;29;20524;-87
2022/05/26 00:03:50;;;;;;;2.17;0.90;;;16.10;95.90;;;;;;4809692;29;20183;-87
2022/05/26 00:06:20;;;;;;;1.60;0.82;;;16.00;96.10;;;;;;4823940;29;20533;-88
2022/05/26 00:08:46;;;;;;;1.70;0.77;;;16.00;96.20;;;;;;4809996;29;20206;-87
2022/05/26 00:11:15;;;;;;;0.88;0.55;;;16.00;95.90;;;;;;4809608;29;20277;-89
2022/05/26 00:13:42;;;;;;;1.70;0.80;;;16.00;96.30;;;;;;4809578;29;20245;-87
2022/05/26 00:16:09;;;;;;;2.65;0.90;;;16.00;96.20;;;;;;4809704;29;20220;-88
2022/05/26 00:18:35;;;;;;;3.10;1.15;;;15.90;96.20;;;;;;4809051;29;20173;-85
2022/05/26 00:21:02;;;;;;;2.45;0.88;;;15.90;96.20;;;;;;4808737;29;20273;-86
2022/05/26 00:23:27;;;;;;;1.48;0.90;;;15.90;96.20;;;;;;4809727;29;20257;-88
2022/05/26 00:25:53;;;;;;;1.48;0.90;;;15.90;96.40;;;;;;4809480;29;20530;-88
2022/05/26 00:28:19;;;;;;;2.42;0.75;;;15.90;96.40;;;;;;4808474;29;20195;-87
2022/05/26 00:30:45;;;;;;;2.13;0.80;;;15.90;96.50;;;;;;4809309;29;20278;-86
2022/05/26 00:33:13;;;;;;;3.25;1.00;;;15.90;96.60;;;;;;4808141;29;20273;-87
2022/05/26 00:35:40;;;;;;;4.32;1.17;;;15.90;96.50;;;;;;5290089;23;20353;-88
2022/05/26 00:38:09;;;;;;;1.95;0.95;;;15.90;96.50;;;;;;4789070;29;20596;-89
2022/05/26 00:40:35;;;;;;;3.17;1.25;;;15.90;96.30;;;;;;4802695;29;20605;-88
2022/05/26 00:43:02;;;;;;;2.92;1.40;;;15.90;96.50;;;;;;4824152;29;20166;-88
2022/05/26 00:45:47;;;;;;;2.17;1.00;;;15.80;96.60;;;;;;4822814;29;20239;-89
2022/05/26 00:48:17;;;;;;;1.92;1.00;;;15.90;97.40;;;;;;4823885;29;20178;-87
2022/05/26 00:51:03;;;;;;;3.30;1.55;;;15.80;97.20;;;;;;4823251;29;20233;-88
2022/05/26 00:53:38;;;;;;;5.10;1.08;;;15.80;97.10;;;;;;4823216;29;20170;-88
2022/05/26 00:56:17;;;;;;;3.58;0.90;;;15.80;97.40;;;;;;4823255;29;20954;-87
2022/05/26 00:58:47;;;;;;;2.80;0.90;;;15.80;97.30;;;;;;4824133;29;20174;-88
2022/05/26 01:01:14;;;;;;;5.47;1.10;;;15.80;97.60;;;;;;4822723;29;20220;-89
2022/05/26 01:03:51;;;;;;;2.58;0.95;;;15.80;97.60;;;;;;4824277;29;20638;-88
2022/05/26 01:06:29;;;;;;;3.08;1.10;;;15.80;97.70;;;;;;4824140;29;20256;-88
2022/05/26 01:08:58;;;;;;;2.83;1.40;;;15.80;97.60;;;;;;4823019;29;20270;-87
2022/05/26 01:11:28;;;;;;;2.60;0.93;;;15.80;97.70;;;;;;4808672;29;20735;-88
2022/05/26 01:14:11;;;;;;;2.83;0.90;;;15.80;98.00;;;;;;4804817;29;20187;-88
2022/05/26 01:16:55;;;;;;;3.25;1.13;;;15.80;98.10;;;;;;4804914;29;20185;-87
2022/05/26 01:19:44;;;;;;;2.92;1.02;;;15.80;97.90;;;;;;4804601;29;20198;-88
2022/05/26 01:22:23;;;;;;;3.55;0.90;;;15.80;98.10;;;;;;4804767;29;20194;-88
2022/05/26 01:25:32;;;;;;;1.63;0.90;;;15.80;98.20;;;;;;4818047;29;20705;-88
2022/05/26 01:28:31;;;;;;;4.15;1.20;;;15.80;98.10;;;;;;4822470;29;20181;-88
2022/05/26 01:31:24;;;;;;;2.05;0.93;;;15.70;98.30;;;;;;4822449;29;20594;-88
2022/05/26 01:34:03;;;;;;;2.17;0.88;;;15.80;98.20;;;;;;4822594;29;20197;-89
2022/05/26 01:36:51;;;;;;;1.85;0.80;;;15.80;98.50;;;;;;4822461;29;20322;-90
2022/05/26 01:39:16;;;;;;;2.90;1.23;;;15.80;98.50;;;;;;4823895;29;20627;-87
2022/05/26 01:42:06;;;;;;;2.83;1.27;;;15.80;98.80;;;;;;4822384;29;20200;-90
2022/05/26 01:44:46;;;;;;;2.60;1.10;;;15.80;99.00;;;;;;4822615;29;20205;-89
2022/05/26 01:47:31;;;;;;;4.20;1.40;;;15.80;99.20;;;;;;4823534;29;20208;-88
2022/05/26 01:50:22;;;;;;;2.25;1.10;;;15.90;99.80;;;;;;4820347;29;20683;-88
2022/05/26 01:53:19;;;;;;;3.20;1.20;;;15.80;99.90;;;;;;4804269;29;20179;-88
2022/05/26 01:56:00;;;;;;;7.60;1.23;;;15.90;99.90;;;;;;4803692;29;20203;-89
2022/05/26 01:58:31;;;;;;;1.52;1.10;;;15.80;99.90;;;;;;4804023;29;20258;-87
2022/05/26 02:01:02;;;;;;;3.55;1.15;;;15.80;99.90;;;;;;4805371;29;20174;-88
2022/05/26 02:03:32;;;;;;;2.00;1.08;;;15.80;99.90;;;;;;4803988;29;20183;-89
2022/05/26 02:06:17;;;;;;;3.35;1.40;;;15.80;99.90;;;;;;4803628;29;20249;-88
2022/05/26 02:08:49;;;;;;;4.63;1.30;;;15.70;99.90;;;;;;4803717;29;20218;-88
2022/05/26 02:11:19;;;;;;;3.75;1.40;;;15.70;99.90;;;;;;4803712;29;20179;-88
2022/05/26 02:14:03;;;;;;;2.40;1.10;;;15.70;99.90;;;;;;4803701;29;20231;-90
2022/05/26 02:16:49;;;;;;;5.13;1.20;;;15.60;99.90;;;;;;4803449;29;20179;-88
2022/05/26 02:19:23;;;;;;;2.75;1.30;;;15.60;99.90;;;;;;4804921;29;20202;-87
2022/05/26 02:22:23;;;;;;;2.92;1.38;;;15.60;99.90;;;;;;4819851;29;20732;-87
2022/05/26 02:25:14;;;;;;;2.05;1.48;;;15.50;99.90;;;;;;4821184;29;20252;-87
2022/05/26 02:27:40;;;;;;;3.92;1.70;;;15.50;99.90;;;;;;4822147;29;20288;-88
2022/05/26 02:30:07;;;;;;;4.00;1.60;;;15.50;99.90;;;;;;4821783;29;20354;-87
2022/05/26 02:32:51;;;;;;;3.20;1.52;;;15.50;99.90;;;;;;4821921;29;20182;-88
2022/05/26 02:35:23;;;;;;;3.53;1.55;;;15.40;99.90;;;;;;4821508;29;20236;-88
2022/05/26 02:37:55;;;;;;;2.63;1.48;;;15.40;99.90;;;;;;4821797;29;20192;-89
2022/05/26 02:40:21;;;;;;;4.10;1.20;;;15.40;99.90;;;;;;4822755;29;20287;-87
2022/05/26 02:42:58;;;;;;;1.70;1.60;;;15.40;99.90;;;;;;4821761;29;20269;-87
2022/05/26 02:45:39;;;;;;;4.60;1.95;;;15.40;99.90;;;;;;4822841;29;20249;-87
2022/05/26 02:48:31;;;;;;;6.13;2.00;;;15.40;99.90;;;;;;4821849;29;20541;-87
2022/05/26 02:51:24;;;;;;;2.58;2.10;;;15.40;99.90;;;;;;4822405;29;20213;-88
2022/05/26 02:54:05;;;;;;;5.10;2.28;;;15.40;99.90;;;;;;4821036;29;20177;-90
2022/05/26 02:56:49;;;;;;;4.38;2.42;;;15.40;99.90;;;;;;4821920;29;20257;-88
2022/05/26 02:59:39;;;;;;;3.10;2.25;;;15.40;99.90;;;;;;4821824;29;20237;-90
2022/05/26 03:02:37;;;;;;;2.95;2.47;;;15.30;99.90;;;;;;4822667;29;20182;-88
2022/05/26 03:05:12;;;;;;;6.10;2.88;;;15.30;99.90;;;;;;4821048;29;20309;-87
2022/05/26 03:07:41;;;;;;;3.38;2.50;;;15.30;99.90;;;;;;4821888;29;20181;-88
2022/05/26 03:10:10;;;;;;;4.00;2.50;;;15.30;99.90;;;;;;4821803;29;20250;-90
2022/05/26 03:12:36;;;;;;;3.53;2.65;;;15.20;99.90;;;;;;4821518;29;20181;-87
2022/05/26 03:15:05;;;;;;;4.93;2.67;;;15.30;99.90;;;;;;4821268;29;20202;-88
2022/05/26 03:17:31;;;;;;;5.45;2.80;;;15.20;99.90;;;;;;4821471;29;20206;-87
2022/05/26 03:19:56;;;;;;;3.17;2.50;;;15.30;99.90;;;;;;4819136;29;20633;-89
2022/05/26 03:22:23;;;;;;;3.88;2.78;;;15.30;99.90;;;;;;4803186;29;20187;-87
2022/05/26 03:24:49;;;;;;;4.25;2.90;;;15.30;99.90;;;;;;4802764;29;20206;-88
2022/05/26 03:27:15;;;;;;;4.18;2.42;;;15.30;99.90;;;;;;4818377;29;20202;-88
2022/05/26 03:29:42;;;;;;;5.03;2.47;;;15.30;99.90;;;;;;4804281;29;20202;-88
2022/05/26 03:32:09;;;;;;;4.63;2.83;;;15.30;99.90;;;;;;4803260;29;20179;-89
2022/05/26 03:42:48;;;;;;;2.97;2.50;;;15.30;99.90;;;;;;4808034;29;20169;-88
2022/05/26 03:45:17;;;;;;;5.28;2.80;;;15.30;99.90;;;;;;4806478;29;20209;-88
2022/05/26 03:47:43;;;;;;;5.13;2.72;;;15.30;99.90;;;;;;4806412;29;20569;-89
2022/05/26 03:50:10;;;;;;;4.70;2.72;;;15.30;99.90;;;;;;4806285;29;20207;-89
2022/05/26 03:52:37;;;;;;;4.65;3.13;;;15.30;99.90;;;;;;4808162;29;20252;-89
2022/05/26 03:55:04;;;;;;;3.85;2.78;;;15.30;99.90;;;;;;4806131;29;20564;-88
2022/05/26 03:57:31;;;;;;;4.70;2.95;;;15.40;99.90;;;;;;4805905;29;20228;-87
2022/05/26 03:59:59;;;;;;;6.35;2.92;;;15.30;99.90;;;;;;4807803;29;20174;-88
2022/05/26 04:02:26;;;;;;;6.82;3.30;;;15.40;99.90;;;;;;4806287;29;20178;-88
2022/05/26 04:04:51;;;;;;;3.83;2.85;;;15.30;99.90;;;;;;4806260;29;20214;-89
2022/05/26 04:07:17;;;;;;;4.95;3.03;;;15.30;99.90;;;;;;4806327;29;20546;-88
2022/05/26 04:09:43;;;;;;;3.15;2.60;;;15.30;99.90;;;;;;4806173;29;20836;-88
2022/05/26 04:12:10;;;;;;;3.72;2.95;;;15.30;99.90;;;;;;4807197;29;20953;-89
2022/05/26 04:14:37;;;;;;;3.78;3.00;;;15.30;99.90;;;;;;4806070;29;20206;-88
2022/05/26 04:17:03;;;;;;;7.35;3.60;;;15.30;99.90;;;;;;4806084;29;20285;-87
2022/05/26 04:19:29;;;;;;;5.72;3.30;;;15.40;99.90;;;;;;4806140;29;20609;-87
2022/05/26 04:24:39;;;;;;;5.88;3.28;;;15.40;99.90;;;;;;4806861;29;20763;-87
2022/05/26 04:27:06;;;;;;;8.13;3.40;;;15.40;99.90;;;;;;4805710;29;20269;-89
2022/05/26 04:29:32;;;;;;;6.47;3.15;;;15.40;99.90;;;;;;4806071;29;20207;-89
2022/05/26 04:31:59;;;;;;;7.65;4.03;;;15.40;99.90;;;;;;4805990;29;20178;-89
2022/05/26 04:34:25;;;;;;;4.85;3.40;;;15.40;99.90;;;;;;4805609;29;20246;-87
2022/05/26 04:36:51;;;;;;;7.93;3.53;;;15.40;99.90;;;;;;4805374;29;20303;-88
2022/05/26 04:39:18;;;;;;;4.13;3.42;;;15.30;99.90;;;;;;4805822;29;20175;-88
2022/05/26 04:41:45;;;;;;;5.55;3.17;;;15.40;99.90;;;;;;4805768;29;20593;-88
2022/05/26 04:44:13;;;;;;;5.75;3.30;;;15.30;99.90;;;;;;4805625;29;20265;-88
2022/05/26 04:46:39;;;;;;;6.90;3.13;;;15.30;99.90;;;;;;4819928;29;20178;-88
2022/05/26 04:49:05;;;;;;;5.15;3.47;;;15.30;99.90;;;;;;4805193;29;20199;-87
2022/05/26 04:51:34;;;;;;;9.65;3.25;;;15.30;99.90;;;;;;4806343;29;20245;-87
2022/05/26 04:54:01;;;;;;;5.05;3.70;;;15.40;99.90;;;;;;4805498;29;20175;-88
2022/05/26 04:56:27;;;;;;;4.20;3.58;;;15.40;99.90;;;;;;4805108;29;20229;-87
2022/05/26 04:58:52;;;;;;;4.47;3.70;;;15.30;99.90;;;;;;4804966;29;20620;-88
2022/05/26 05:01:19;;;;;;;6.07;3.70;;;15.20;99.90;;;;;;4804658;29;20193;-88
2022/05/26 05:03:47;;;;;;;4.63;3.60;;;15.10;99.90;;;;;;4805132;29;20235;-88
2022/05/26 05:06:13;;;;;;;5.28;3.97;;;15.00;99.90;;;;;;4804861;29;20203;-88
2022/05/26 05:08:41;;;;;;;5.38;4.18;;;14.90;99.90;;;;;;4804844;29;20178;-89
2022/05/26 05:11:07;;;;;;;5.95;3.85;;;14.80;99.90;;;;;;4804814;29;20203;-88
2022/05/26 05:13:33;;;;;;;7.15;4.38;;;14.80;99.90;;;;;;4804659;29;20194;-87
2022/05/26 05:16:29;;;;;;;4.85;4.20;;;14.80;99.90;;;;;;4805206;29;20210;-88
2022/05/26 05:18:56;;;;;;;5.38;4.15;;;14.80;99.90;;;;;;4804981;29;20691;-87
2022/05/26 05:21:43;;;;;;;7.90;4.55;;;14.80;99.90;;;;;;4804754;29;20186;-89
2022/05/26 05:24:15;;;;;;;8.60;4.28;;;14.80;99.90;;;;;;4819451;29;20174;-87
2022/05/26 05:26:45;;;;;;;10.05;4.20;;;14.80;99.90;;;;;;4804475;29;20171;-87
2022/05/26 05:29:14;;;;;;;7.72;3.83;;;14.90;99.90;;;;;;4804809;29;20202;-88
2022/05/26 05:31:47;;;;;;;5.25;4.03;;;14.80;99.90;;;;;;4804488;29;20670;-89
2022/05/26 05:34:19;;;;;;;6.25;4.05;;;14.80;99.90;;;;;;4804348;29;20179;-88
2022/05/26 05:36:45;;;;;;;4.53;4.13;;;14.80;99.90;;;;;;4804262;29;20699;-87
2022/05/26 05:39:11;;;;;;;5.40;4.53;;;14.90;99.90;;;;;;4804745;29;20535;-87
2022/05/26 05:41:37;;;;;;;6.75;4.30;;;14.80;99.90;;;;;;4804189;29;20186;-88
2022/05/26 05:44:04;;;;;;;6.13;4.00;;;14.80;99.90;;;;;;4803817;29;20183;-86
2022/05/26 05:46:34;;;;;;;9.63;4.72;;;14.80;99.90;;;;;;4804016;29;20231;-89
2022/05/26 05:49:04;;;;;;;8.98;5.18;;;14.80;99.90;;;;;;4803750;29;20646;-88
2022/05/26 05:51:32;;;;;;;6.22;5.30;;;14.90;99.90;;;;;;4803884;29;20191;-88
2022/05/26 05:53:58;;;;;;;5.80;4.57;;;15.00;99.90;;;;;;4803943;29;20179;-89
2022/05/26 05:56:24;;;;;;;13.13;5.35;;;15.00;99.90;;;;;;4803401;29;20210;-88
2022/05/26 05:58:51;;;;;;;6.57;4.65;;;15.00;99.90;;;;;;4803795;29;20269;-89
2022/05/26 06:01:17;;;;;;;5.72;5.22;;;15.10;99.90;;;;;;4803645;29;20533;-87
2022/05/26 06:03:43;;;;;;;6.25;4.93;;;15.30;99.90;;;;;;4804912;29;20227;-88
2022/05/26 06:06:09;;;;;;;6.30;5.28;;;15.50;99.90;;;;;;4803935;29;20203;-89
2022/05/26 06:08:37;;;;;;;6.53;5.22;;;15.70;99.90;;;;;;4803954;29;20171;-87
2022/05/26 06:11:03;;;;;;;5.82;4.88;;;15.80;99.90;;;;;;4803627;29;20553;-87
2022/05/26 06:13:29;;;;;;;6.75;4.93;;;15.90;99.90;;;;;;4803482;29;20201;-87
2022/05/26 06:15:54;;;;;;;5.20;4.32;;;16.00;99.90;;;;;;4803542;29;20207;-88
2022/05/26 06:18:20;;;;;;;6.03;4.70;;;16.00;99.90;;;;;;4803946;29;20190;-88
2022/05/26 06:20:46;;;;;;;6.43;3.90;;;16.00;99.90;;;;;;4803708;29;20285;-89
2022/05/26 06:23:12;;;;;;;6.50;4.13;;;16.00;99.90;;;;;;4805078;29;20248;-87
2022/05/26 06:25:38;;;;;;;4.95;4.20;;;16.10;99.90;;;;;;4803687;29;20206;-87
2022/05/26 06:30:49;;;;;;;4.97;4.07;;;16.20;99.90;;;;;;4802584;29;20209;-88
2022/05/26 06:38:44;;;;;;;5.38;3.78;;;16.30;99.90;;;;;;4804954;29;20178;-88
2022/05/26 06:43:59;;;;;;;8.18;4.10;;;16.40;99.90;;;;;;4805303;29;20308;-88
2022/05/26 06:46:25;;;;;;;5.90;4.07;;;16.50;99.90;;;;;;4803682;29;20214;-88
2022/05/26 06:48:52;;;;;;;10.13;3.95;;;16.70;99.90;;;;;;4804935;29;20183;-89
2022/05/26 06:51:18;;;;;;;7.22;3.65;;;16.60;99.90;;;;;;4817566;29;20293;-88
2022/05/26 06:53:51;;;;;;;6.80;3.97;;;16.60;99.90;;;;;;4822961;29;20655;-87
2022/05/26 06:56:17;;;;;;;7.20;4.68;;;16.70;99.90;;;;;;4821694;29;20266;-88
2022/05/26 06:58:43;;;;;;;6.22;3.80;;;16.80;99.90;;;;;;4806530;29;20198;-88
2022/05/26 07:01:08;;;;;;;7.85;3.90;;;16.80;99.90;;;;;;4803493;29;20677;-89
2022/05/26 07:03:34;;;;;;;7.40;4.13;;;16.80;99.90;;;;;;4802833;29;20366;-89
2022/05/26 07:06:00;;;;;;;8.02;4.05;;;16.80;99.90;;;;;;4802265;29;20215;-89
2022/05/26 07:08:26;;;;;;;6.28;3.92;;;17.00;99.90;;;;;;4803706;29;20571;-89
2022/05/26 07:10:54;;;;;;;4.95;3.50;;;17.20;99.90;;;;;;4805224;29;20206;-88
2022/05/26 07:13:20;;;;;;;7.70;4.20;;;17.40;99.90;;;;;;4806870;29;20163;-88
2022/05/26 07:15:47;;;;;;;6.80;3.47;;;17.50;99.90;;;;;;4805214;29;20255;-89
2022/05/26 07:18:13;;;;;;;5.15;3.42;;;17.60;99.90;;;;;;4805573;29;20179;-89
2022/05/26 07:20:39;;;;;;;7.10;3.55;;;17.60;99.90;;;;;;4805962;29;20203;-88
2022/05/26 07:23:10;;;;;;;4.53;3.15;;;17.60;99.90;;;;;;4806806;29;20721;-87
2022/05/26 07:25:43;;;;;;;6.05;2.85;;;17.70;99.90;;;;;;4807718;29;20209;-88
2022/05/26 07:28:12;;;;;;;4.95;2.75;;;17.90;99.90;;;;;;4806874;29;20178;-88
2022/05/26 07:30:39;;;;;;;4.35;2.72;;;17.80;99.90;;;;;;4806756;29;20262;-88
2022/05/26 07:33:05;;;;;;;4.72;2.75;;;17.90;99.90;;;;;;4806958;29;20178;-87
2022/05/26 07:35:30;;;;;;;5.78;2.70;;;18.20;99.90;;;;;;4806564;29;20238;-89
2022/05/26 07:43:29;;;;;;;6.63;2.65;;;18.40;99.90;;;;;;4808051;29;20651;-88
2022/05/26 07:45:55;;;;;;;5.72;2.60;;;18.50;99.90;;;;;;4806288;29;20214;-87
2022/05/26 07:48:20;;;;;;;5.25;2.75;;;18.50;99.90;;;;;;4807744;29;20170;-88
2022/05/26 07:50:48;;;;;;;3.10;2.38;;;18.30;99.90;;;;;;4806182;29;20206;-89
2022/05/26 07:53:14;;;;;;;4.15;2.45;;;18.20;99.90;;;;;;4806258;29;20185;-87
2022/05/26 07:55:42;;;;;;;7.60;2.53;;;18.20;99.90;;;;;;4805979;29;20202;-87
2022/05/26 07:58:12;;;;;;;6.43;2.55;;;18.00;99.90;;;;;;4806059;29;20597;-89
2022/05/26 08:00:39;;;;;;;5.35;2.10;;;18.20;99.90;;;;;;4805978;29;20183;-87
2022/05/26 08:03:06;;;;;;;4.50;2.17;;;18.50;99.90;;;;;;4805814;29;20298;-88
2022/05/26 08:05:32;;;;;;;5.45;2.13;;;18.60;99.90;;;;;;4807161;29;20206;-88
2022/05/26 08:07:58;;;;;;;5.18;2.40;;;18.50;99.90;;;;;;4807396;29;20171;-89
2022/05/26 08:10:24;;;;;;;9.20;2.45;;;18.50;99.90;;;;;;4805844;29;20215;-88
2022/05/26 08:12:50;;;;;;;4.88;1.90;;;18.70;99.90;;;;;;4806223;29;20562;-89
2022/05/26 08:15:16;;;;;;;7.00;2.15;;;19.00;99.90;;;;;;4806108;29;20675;-88
2022/05/26 08:17:42;;;;;;;6.93;2.25;;;19.20;99.90;;;;;;4807381;29;20159;-87
2022/05/26 08:20:10;;;;;;;5.07;2.60;;;19.10;99.90;;;;;;4823790;29;20243;-87
2022/05/26 08:22:36;;;;;;;3.75;2.28;;;19.00;99.90;;;;;;4823950;29;20170;-86
2022/05/26 08:25:02;;;;;;;4.55;1.90;;;18.80;99.90;;;;;;4824011;29;20209;-88
2022/05/26 08:27:28;;;;;;;4.40;2.38;;;18.60;99.90;;;;;;4824985;29;20514;-88
2022/05/26 08:29:54;;;;;;;4.35;2.50;;;18.50;99.90;;;;;;4823633;29;20217;-88
2022/05/26 08:32:22;;;;;;;13.68;3.08;;;18.40;99.90;;;;;;4824212;29;20189;-87
2022/05/26 08:34:48;;;;;;;7.55;3.78;;;18.50;99.90;;;;;;4823265;29;20695;-89
2022/05/26 08:37:19;;;;;;;9.40;2.70;;;18.80;99.90;;;;;;4822780;29;20190;-87
2022/05/26 08:39:46;;;;;;;7.68;2.70;;;19.10;99.90;;;;;;4822806;29;20209;-88
2022/05/26 08:42:28;;;;;;;3.80;2.28;;;19.30;99.90;;;;;;4824002;29;20174;-87
2022/05/26 08:45:05;;;;;;;5.03;2.75;;;19.10;99.90;;;;;;4822324;29;20214;-87
2022/05/26 08:47:35;;;;;;;4.35;2.80;;;19.20;99.90;;;;;;4822522;29;20182;-87
2022/05/26 08:50:13;;;;;;;5.75;2.50;;;19.30;99.90;;;;;;4819257;29;20211;-88
2022/05/26 08:53:01;;;;;;;7.15;2.33;;;19.60;99.90;;;;;;4804135;29;20179;-88
2022/05/26 08:55:41;;;;;;;5.35;2.28;;;19.60;99.90;;;;;;4803832;29;20266;-87
2022/05/26 08:58:26;;;;;;;4.57;2.20;;;19.60;99.90;;;;;;4803937;29;20636;-87
2022/05/26 09:00:53;;;;;;;5.57;2.30;;;19.50;99.90;;;;;;4803937;29;20182;-88
2022/05/26 09:03:28;;;;;;;6.68;2.40;;;19.70;99.90;;;;;;4803675;29;20183;-88
2022/05/26 09:06:08;;;;;;;6.07;1.95;;;19.70;99.90;;;;;;4803892;29;20213;-87
2022/05/26 09:14:38;;;;;;;5.38;1.90;;;20.30;99.90;;;;;;4805214;29;20348;-87
2022/05/26 09:17:11;;;;;;;7.38;2.38;;;20.50;99.90;;;;;;4803807;29;20194;-86
2022/05/26 09:19:43;;;;;;;2.42;1.70;;;20.70;98.20;;;;;;4803847;29;20183;-87
2022/05/26 09:22:38;;;;;;;4.53;1.70;;;20.90;98.70;;;;;;4800616;29;20191;-87
2022/05/26 09:25:04;;;;;;;6.15;1.60;;;21.10;98.40;;;;;;4785777;29;20219;-88
2022/05/26 09:27:36;;;;;;;4.15;1.65;;;21.00;96.60;;;;;;4786045;29;20188;-87
2022/05/26 09:30:25;;;;;;;4.28;1.60;;;21.00;97.40;;;;;;4800859;29;20573;-86
2022/05/26 09:32:52;;;;;;;2.53;1.40;;;21.20;96.30;;;;;;4785273;29;20259;-87
2022/05/26 09:35:23;;;;;;;5.43;1.80;;;21.10;96.80;;;;;;4760328;29;1221815;-87
2022/05/26 09:37:52;;;;;;;8.63;2.05;;;20.70;95.80;;;;;;4801431;29;20222;-88
2022/05/26 09:40:36;;;;;;;4.15;1.75;;;20.40;95.90;;;;;;4798543;29;20190;-88
2022/05/26 09:43:18;;;;;;;5.50;2.08;;;20.10;97.20;;;;;;4804291;29;20274;-87
2022/05/26 09:45:57;;;;;;;4.13;1.90;;;19.80;97.20;;;;;;4804965;29;20295;-87
2022/05/26 09:48:24;;;;;;;3.25;1.60;;;19.70;98.00;;;;;;4805462;29;20179;-87
2022/05/26 09:51:33;;;;;;;4.55;2.10;;;20.00;97.40;;;;;;4803897;29;20647;-88
2022/05/26 09:54:24;;;;;;;3.03;1.42;;;20.00;96.90;;;;;;4803848;29;20171;-88
2022/05/26 09:56:50;;;;;;;3.88;1.80;;;19.90;98.30;;;;;;4803952;29;20715;-87
2022/05/26 09:59:29;;;;;;;4.97;1.60;;;20.00;97.70;;;;;;4804445;29;20227;-93
2022/05/26 10:02:12;;;;;;;4.80;1.90;;;20.30;97.30;;;;;;4805787;29;20202;-89
2022/05/26 10:04:50;;;;;;;5.82;1.92;;;20.30;97.60;;;;;;4804299;29;20206;-89
2022/05/26 10:07:47;;;;;;;2.58;1.13;;;20.50;96.60;;;;;;4804435;29;20189;-88
2022/05/26 10:10:24;;;;;;;5.47;1.60;;;20.50;96.20;;;;;;4792601;29;20215;-88
2022/05/26 10:13:18;;;;;;;3.22;1.48;;;20.30;94.60;;;;;;4801790;29;20179;-89
2022/05/26 10:16:09;;;;;;;6.18;1.80;;;19.90;95.70;;;;;;4786667;29;20294;-88
2022/05/26 10:19:01;;;;;;;5.28;1.58;;;19.60;95.90;;;;;;4801203;29;20180;-88
2022/05/26 10:21:55;;;;;;;2.65;1.70;;;19.40;96.30;;;;;;4801424;29;20186;-90
2022/05/26 10:24:22;;;;;;;4.60;1.70;;;19.30;97.30;;;;;;4801155;29;20187;-89
2022/05/26 10:26:56;;;;;;;4.32;1.45;;;19.50;97.70;;;;;;4801246;29;20672;-88
2022/05/26 10:29:49;;;;;;;4.60;1.20;;;19.90;96.30;;;;;;4801321;29;20210;-88
2022/05/26 10:32:38;;;;;;;2.53;1.52;;;20.30;96.40;;;;;;4800976;29;20175;-88
2022/05/26 10:35:25;;;;;;;5.88;1.77;;;20.60;94.50;;;;;;4801224;29;20209;-88
2022/05/26 10:38:18;;;;;;;4.78;1.50;;;20.80;94.70;;;;;;4801333;29;20547;-89
2022/05/26 10:40:55;;;;;;;4.55;1.52;;;20.90;95.80;;;;;;4814080;29;20195;-87
2022/05/26 10:43:35;;;;;;;4.32;1.67;;;21.30;96.20;;;;;;4801514;29;20183;-89
2022/05/26 10:46:03;;;;;;;6.45;1.40;;;21.30;95.00;;;;;;4790821;29;20202;-89
2022/05/26 10:48:34;;;;;;;6.35;1.50;;;20.90;92.90;;;;;;4789527;29;20683;-88
2022/05/26 10:51:06;;;;;;;3.10;1.25;;;20.60;93.10;;;;;;4790863;29;20207;-87
2022/05/26 10:53:59;;;;;;;2.35;1.20;;;20.60;93.10;;;;;;4789444;29;20172;-90
2022/05/26 10:56:57;;;;;;;2.70;1.20;;;20.70;93.80;;;;;;4788997;29;20309;-90
2022/05/26 10:59:48;;;;;;;2.50;1.20;;;20.60;93.70;;;;;;4789559;29;20187;-89
2022/05/26 11:02:57;;;;;;;3.05;1.08;;;20.30;94.30;;;;;;4789658;29;20259;-90
2022/05/26 11:05:45;;;;;;;6.85;1.60;;;19.90;93.80;;;;;;4791292;29;20238;-89
2022/05/26 11:08:31;;;;;;;2.25;1.33;;;19.50;94.50;;;;;;4804380;29;20556;-88
2022/05/26 11:11:03;;;;;;;5.10;1.30;;;19.30;94.60;;;;;;4824596;29;20305;-87
2022/05/26 11:13:48;;;;;;;5.85;1.50;;;19.30;95.60;;;;;;4825198;29;20185;-89
2022/05/26 11:19:31;;;;;;;5.00;1.50;;;19.30;95.70;;;;;;4826612;29;20181;-88
2022/05/26 11:21:59;;;;;;;5.65;1.20;;;19.60;96.00;;;;;;4825398;29;20639;-89
2022/05/26 11:24:25;;;;;;;5.35;1.40;;;20.10;96.40;;;;;;4824991;29;20214;-90
2022/05/26 11:27:03;;;;;;;2.85;1.48;;;20.30;94.50;;;;;;4824632;29;20269;-89
2022/05/26 11:29:39;;;;;;;4.43;1.23;;;20.30;94.80;;;;;;4825148;29;20328;-88
2022/05/26 11:38:32;;;;;;;8.52;1.65;;;19.50;94.40;;;;;;4824414;29;20193;-89
2022/05/26 11:41:00;;;;;;;2.88;1.13;;;19.30;95.30;;;;;;4823826;29;20178;-88
2022/05/26 11:43:29;;;;;;;3.50;1.35;;;19.40;95.50;;;;;;4834671;29;20234;-89
2022/05/26 11:45:57;;;;;;;5.80;1.48;;;19.40;94.90;;;;;;4824941;29;20232;-88
2022/05/26 11:48:32;;;;;;;3.45;1.30;;;19.50;96.90;;;;;;4824721;29;20236;-88
2022/05/26 11:51:02;;;;;;;2.83;1.08;;;20.00;96.30;;;;;;4824853;29;20197;-89
2022/05/26 11:53:27;;;;;;;4.53;1.30;;;20.40;95.20;;;;;;4824904;29;20190;-89
2022/05/26 11:55:58;;;;;;;5.57;1.42;;;20.60;95.70;;;;;;4824188;29;20297;-89
2022/05/26 11:58:41;;;;;;;5.55;1.50;;;20.60;95.00;;;;;;4825223;29;20185;-88
2022/05/26 12:01:12;;;;;;;6.63;1.50;;;20.40;93.70;;;;;;4825205;29;20666;-87
2022/05/26 12:03:56;;;;;;;6.18;1.60;;;20.30;94.80;;;;;;4825096;29;20182;-89
2022/05/26 12:06:52;;;;;;;6.40;1.52;;;20.30;96.70;;;;;;4824355;29;20705;-88
2022/05/26 12:09:46;;;;;;;6.97;1.40;;;20.70;94.90;;;;;;4819788;29;20244;-88
2022/05/26 12:12:21;;;;;;;3.28;1.67;;;20.90;94.90;;;;;;4806039;29;20194;-88
2022/05/26 12:14:46;;;;;;;5.35;1.20;;;21.00;94.70;;;;;;4806226;29;20609;-88
2022/05/26 12:17:33;;;;;;;3.58;1.10;;;21.00;94.70;;;;;;4806297;29;20227;-88
2022/05/26 12:20:10;;;;;;;4.18;1.50;;;21.00;94.00;;;;;;4806108;29;20186;-90
2022/05/26 12:22:47;;;;;;;3.70;1.20;;;20.90;94.30;;;;;;4806463;29;20181;-88
2022/05/26 12:25:35;;;;;;;10.38;1.17;;;21.40;94.60;;;;;;4807200;29;20209;-92
2022/05/26 12:28:10;;;;;;;2.67;1.05;;;21.50;94.30;;;;;;4806117;29;20198;-88
2022/05/26 12:31:00;;;;;;;5.40;1.10;;;21.30;93.70;;;;;;4805786;29;20258;-89
2022/05/26 12:33:52;;;;;;;2.85;0.85;;;21.10;91.90;;;;;;4805770;29;20189;-89
2022/05/26 12:36:45;;;;;;;5.05;1.40;;;21.00;93.80;;;;;;4805802;29;20238;-88
2022/05/26 12:39:21;;;;;;;3.33;0.90;;;20.90;93.40;;;;;;4805845;29;20643;-89
2022/05/26 12:42:00;;;;;;;3.65;1.17;;;20.80;93.30;;;;;;4805275;29;20186;-88
2022/05/26 12:44:47;;;;;;;4.80;1.00;;;20.60;92.90;;;;;;4805402;29;20281;-88
2022/05/26 12:47:38;;;;;;;4.72;1.15;;;20.30;92.70;;;;;;4806110;29;20179;-89
2022/05/26 12:50:38;;;;;;;5.78;1.23;;;20.10;94.10;;;;;;4805845;29;20422;-89
2022/05/26 12:53:27;;;;;;;4.97;1.20;;;19.90;93.60;;;;;;4805247;29;20195;-89
2022/05/26 12:56:04;;;;;;;2.75;1.20;;;19.90;93.90;;;;;;4806241;29;20282;-89
2022/05/26 12:58:41;;;;;;;3.28;0.95;;;20.10;94.40;;;;;;4807122;29;20159;-89
2022/05/26 13:01:13;;;;;;;2.85;0.88;;;20.30;94.80;;;;;;4806636;29;20624;-88
2022/05/26 13:03:46;;;;;;;3.25;1.00;;;20.70;95.10;;;;;;4805365;29;20189;-86
2022/05/26 13:06:21;;;;;;;2.58;1.00;;;20.70;92.50;;;;;;4804454;29;20233;-88
2022/05/26 13:09:06;;;;;;;5.53;1.45;;;20.50;93.60;;;;;;4806569;29;20174;-90
2022/05/26 13:11:36;;;;;;;8.23;1.35;;;20.20;93.90;;;;;;4823370;29;20533;-90
2022/05/26 13:14:08;;;;;;;4.15;1.25;;;20.00;95.10;;;;;;4823375;29;20235;-88
2022/05/26 13:16:41;;;;;;;2.38;0.90;;;20.10;95.40;;;;;;4823824;29;20763;-90
2022/05/26 13:19:10;;;;;;;2.75;1.00;;;20.60;94.80;;;;;;4823388;29;20193;-88
2022/05/26 13:21:37;;;;;;;3.10;0.95;;;20.80;93.20;;;;;;4824272;29;20174;-88
2022/05/26 13:24:04;;;;;;;5.80;1.30;;;20.60;92.80;;;;;;4823120;29;20194;-88
2022/05/26 13:26:30;;;;;;;3.08;1.10;;;20.40;93.20;;;;;;4823024;29;20182;-89
2022/05/26 13:28:59;;;;;;;3.92;1.10;;;20.20;93.40;;;;;;4823181;29;20715;-89
2022/05/26 13:34:13;;;;;;;3.38;1.00;;;19.80;93.60;;;;;;4824287;29;20169;-89
2022/05/26 13:36:45;;;;;;;4.68;1.42;;;19.70;93.60;;;;;;4822848;29;20233;-86
2022/05/26 13:39:22;;;;;;;2.60;1.00;;;19.70;94.10;;;;;;4818863;29;20198;-88
2022/05/26 13:41:51;;;;;;;3.78;1.00;;;19.70;93.80;;;;;;4805811;29;20639;-90
2022/05/26 13:44:32;;;;;;;3.95;1.00;;;19.90;94.50;;;;;;4805627;29;20163;-88
2022/05/26 13:46:58;;;;;;;4.18;1.40;;;19.90;94.10;;;;;;4804627;29;20204;-88
2022/05/26 13:49:32;;;;;;;3.03;1.02;;;20.00;93.30;;;;;;4804690;29;20206;-88
2022/05/26 13:52:05;;;;;;;2.85;0.93;;;20.00;94.70;;;;;;4804823;29;20171;-89
2022/05/26 13:54:41;;;;;;;4.35;1.20;;;19.90;94.60;;;;;;4804688;29;20234;-88
2022/05/26 13:57:28;;;;;;;3.25;1.20;;;19.80;94.70;;;;;;4804445;29;20173;-89
2022/05/26 13:59:59;;;;;;;3.95;1.20;;;19.80;95.20;;;;;;4805561;29;20227;-89
2022/05/26 14:02:36;;;;;;;3.85;1.38;;;19.80;94.80;;;;;;4804792;29;20239;-88
2022/05/26 14:05:16;;;;;;;4.85;1.25;;;19.70;94.90;;;;;;4804192;29;20242;-89